Time;durP1;ratioP1;P1;durP2;ratioP2;P2;SDS_P1;SDS_P2;PMS_P1;PMS_P2;Temp;Humidity;BMP_temperature;BMP_pressure;BME280_temperature;BME280_humidity;BME280_pressure;Samples;Min_cycle;Max_cycle;Signal;HPM_P1;HPM_P2
2023/04/03 00:01:02;;;;;;;9.57;7.38;;;4.80;89.70;;;;;;5073143;28;20192;-71
2023/04/03 00:03:30;;;;;;;9.00;6.93;;;4.70;89.30;;;;;;5073933;28;20201;-71
2023/04/03 00:05:58;;;;;;;8.43;6.80;;;4.70;89.50;;;;;;5072965;28;20559;-71
2023/04/03 00:08:25;;;;;;;9.93;7.68;;;4.70;89.80;;;;;;5073530;28;20229;-71
2023/04/03 00:10:53;;;;;;;8.02;6.68;;;4.70;90.00;;;;;;5072398;28;20189;-71
2023/04/03 00:13:21;;;;;;;10.68;7.68;;;4.70;89.90;;;;;;5073348;28;20185;-71
2023/04/03 00:15:50;;;;;;;10.05;7.20;;;4.70;90.10;;;;;;5072861;28;20186;-71
2023/04/03 00:18:19;;;;;;;8.10;6.95;;;4.70;90.40;;;;;;5073748;28;20189;-71
2023/04/03 00:20:46;;;;;;;8.73;6.72;;;4.70;90.20;;;;;;5072483;28;20181;-71
2023/04/03 00:23:15;;;;;;;9.77;7.10;;;4.60;90.20;;;;;;5073414;28;20196;-71
2023/04/03 00:25:45;;;;;;;9.95;6.85;;;4.60;90.10;;;;;;5073031;28;20655;-74
2023/04/03 00:28:12;;;;;;;10.13;7.18;;;4.70;90.20;;;;;;5073425;28;20190;-71
2023/04/03 00:30:40;;;;;;;10.52;7.50;;;4.70;90.30;;;;;;5072355;28;20597;-71
2023/04/03 00:33:07;;;;;;;9.32;7.00;;;4.70;90.30;;;;;;5073403;28;20197;-71
2023/04/03 00:35:36;;;;;;;10.27;6.70;;;4.60;90.20;;;;;;5072877;28;20185;-71
2023/04/03 00:38:03;;;;;;;12.40;8.50;;;4.60;90.40;;;;;;5073432;28;20232;-71
2023/04/03 00:40:35;;;;;;;11.40;7.25;;;4.60;90.40;;;;;;5072303;28;20587;-71
2023/04/03 00:43:06;;;;;;;10.45;6.95;;;4.60;90.60;;;;;;5073179;28;20185;-71
2023/04/03 00:45:36;;;;;;;11.10;7.32;;;4.60;90.50;;;;;;5072334;28;20193;-71
2023/04/03 00:48:06;;;;;;;8.73;6.93;;;4.60;90.60;;;;;;5073107;28;20280;-72
2023/04/03 00:50:36;;;;;;;10.02;7.00;;;4.70;90.60;;;;;;5072394;28;20706;-71
2023/04/03 00:53:05;;;;;;;10.77;6.72;;;4.70;90.70;;;;;;5073076;28;20193;-71
2023/04/03 00:55:34;;;;;;;8.60;6.22;;;4.70;90.60;;;;;;5071825;28;20186;-71
2023/04/03 00:58:03;;;;;;;8.57;6.38;;;4.70;90.60;;;;;;5072825;28;20651;-71
2023/04/03 01:00:30;;;;;;;10.52;7.00;;;4.60;90.40;;;;;;5071431;28;20663;-71
2023/04/03 01:03:01;;;;;;;8.93;7.07;;;4.60;90.60;;;;;;5072967;28;20190;-71
2023/04/03 01:05:28;;;;;;;9.30;6.15;;;4.60;90.70;;;;;;5071578;28;20628;-71
2023/04/03 01:07:56;;;;;;;7.47;5.50;;;4.60;90.60;;;;;;5072146;28;20182;-71
2023/04/03 01:10:23;;;;;;;8.02;5.93;;;4.70;90.70;;;;;;5072283;28;20249;-71
2023/04/03 01:12:52;;;;;;;6.68;5.15;;;4.70;90.70;;;;;;5072453;28;20189;-72
2023/04/03 01:15:22;;;;;;;7.47;6.30;;;4.70;90.70;;;;;;5070462;28;20212;-71
2023/04/03 01:17:52;;;;;;;13.93;7.28;;;4.70;90.90;;;;;;5071801;28;20196;-71
2023/04/03 01:21:07;;;;;;;8.23;6.07;;;4.60;90.90;;;;;;5071569;28;20209;-71
2023/04/03 01:23:48;;;;;;;10.30;5.88;;;4.70;91.10;;;;;;5071976;28;20193;-71
2023/04/03 01:26:16;;;;;;;10.85;7.15;;;4.70;91.40;;;;;;5070930;28;20193;-71
2023/04/03 01:28:45;;;;;;;13.10;5.70;;;4.70;91.10;;;;;;5072198;28;20322;-71
2023/04/03 01:31:19;;;;;;;14.18;6.60;;;4.70;91.00;;;;;;5072332;28;20186;-72
2023/04/03 01:33:49;;;;;;;7.60;5.60;;;4.70;91.00;;;;;;5072311;28;20193;-71
2023/04/03 01:36:18;;;;;;;10.05;6.82;;;4.80;91.30;;;;;;5071052;28;20178;-72
2023/04/03 01:38:46;;;;;;;8.65;6.60;;;4.80;91.30;;;;;;5071737;28;20236;-72
2023/04/03 01:41:13;;;;;;;11.98;6.68;;;4.80;91.20;;;;;;5071585;28;20224;-72
2023/04/03 01:43:41;;;;;;;13.82;6.72;;;4.80;91.20;;;;;;5072436;28;20556;-72
2023/04/03 01:46:12;;;;;;;10.57;7.07;;;4.80;91.20;;;;;;5070558;28;20542;-72
2023/04/03 01:48:39;;;;;;;8.90;5.60;;;4.80;91.10;;;;;;5072577;28;20256;-72
2023/04/03 01:51:12;;;;;;;8.90;6.22;;;4.80;91.20;;;;;;5071129;28;20193;-72
2023/04/03 01:53:39;;;;;;;8.05;6.10;;;4.80;91.10;;;;;;5072292;28;20193;-72
2023/04/03 01:56:07;;;;;;;8.02;6.47;;;4.80;91.10;;;;;;5070869;28;20181;-71
2023/04/03 01:58:35;;;;;;;9.73;7.25;;;4.80;91.20;;;;;;5071988;28;20186;-72
2023/04/03 02:01:02;;;;;;;9.20;7.30;;;4.80;91.30;;;;;;5071328;28;20560;-71
2023/04/03 02:03:30;;;;;;;8.32;6.03;;;4.80;91.00;;;;;;5072201;28;20193;-72
2023/04/03 02:05:58;;;;;;;8.80;6.47;;;4.80;91.00;;;;;;5070543;28;20644;-72
2023/04/03 02:08:26;;;;;;;12.13;6.30;;;4.70;91.00;;;;;;5072014;28;20193;-72
2023/04/03 02:10:53;;;;;;;9.00;6.47;;;4.70;91.10;;;;;;5072131;28;20255;-72
2023/04/03 02:13:21;;;;;;;10.77;6.38;;;4.70;91.20;;;;;;5072113;28;20182;-72
2023/04/03 02:15:48;;;;;;;7.78;5.57;;;4.70;91.30;;;;;;5070289;28;20213;-72
2023/04/03 02:18:16;;;;;;;7.90;5.88;;;4.70;91.20;;;;;;5071547;28;20189;-71
2023/04/03 02:20:43;;;;;;;10.15;7.22;;;4.70;91.10;;;;;;5071984;28;20256;-72
2023/04/03 02:23:11;;;;;;;8.88;6.93;;;4.70;91.10;;;;;;5070425;28;20235;-72
2023/04/03 02:25:39;;;;;;;10.45;6.00;;;4.70;91.20;;;;;;5070906;28;20186;-71
2023/04/03 02:28:07;;;;;;;8.52;5.85;;;4.70;91.30;;;;;;5075327;28;20221;-72
2023/04/03 02:30:35;;;;;;;8.48;6.47;;;4.70;91.30;;;;;;5074376;28;20186;-72
2023/04/03 02:33:04;;;;;;;9.57;6.32;;;4.70;91.50;;;;;;5075469;28;20190;-72
2023/04/03 02:35:33;;;;;;;7.10;6.10;;;4.70;91.50;;;;;;5074828;28;20186;-72
2023/04/03 02:38:01;;;;;;;11.35;6.78;;;4.70;91.60;;;;;;5076058;28;20189;-71
2023/04/03 02:40:29;;;;;;;7.03;5.65;;;4.70;91.60;;;;;;5074760;28;20214;-72
2023/04/03 02:43:02;;;;;;;9.52;6.18;;;4.70;91.40;;;;;;5075884;28;20194;-71
2023/04/03 02:45:30;;;;;;;7.50;5.63;;;4.70;91.60;;;;;;5074994;28;20301;-71
2023/04/03 02:47:57;;;;;;;8.52;6.57;;;4.70;91.60;;;;;;5075507;28;20194;-72
2023/04/03 02:50:26;;;;;;;10.00;6.32;;;4.70;91.60;;;;;;5074547;28;20197;-72
2023/04/03 02:52:53;;;;;;;9.77;6.95;;;4.70;91.40;;;;;;5075570;28;20197;-71
2023/04/03 02:55:23;;;;;;;8.13;6.03;;;4.70;91.50;;;;;;5074634;28;20210;-72
2023/04/03 02:57:52;;;;;;;7.53;5.55;;;4.70;91.50;;;;;;5075418;28;20281;-72
2023/04/03 03:00:21;;;;;;;8.70;5.57;;;4.70;91.50;;;;;;5073881;28;20790;-72
2023/04/03 03:02:50;;;;;;;8.32;5.57;;;4.70;91.50;;;;;;5073987;28;20586;-72
2023/04/03 03:05:18;;;;;;;7.82;5.90;;;4.70;91.50;;;;;;5075287;28;20297;-72
2023/04/03 03:07:45;;;;;;;10.52;6.95;;;4.70;91.50;;;;;;5073871;28;20186;-72
2023/04/03 03:10:13;;;;;;;7.80;5.15;;;4.70;91.60;;;;;;5074786;28;20210;-72
2023/04/03 03:12:40;;;;;;;8.70;5.90;;;4.70;91.60;;;;;;5074177;28;20562;-72
2023/04/03 03:15:09;;;;;;;6.82;5.63;;;4.70;91.60;;;;;;5075050;28;20193;-72
2023/04/03 03:17:37;;;;;;;6.82;5.25;;;4.70;91.80;;;;;;5074529;28;20197;-72
2023/04/03 03:20:06;;;;;;;7.43;5.97;;;4.70;91.90;;;;;;5071044;28;20267;-73
2023/04/03 03:22:34;;;;;;;7.55;5.55;;;4.70;92.00;;;;;;5069074;28;20213;-72
2023/04/03 03:25:02;;;;;;;8.45;6.85;;;4.70;92.10;;;;;;5074266;28;20190;-71
2023/04/03 03:27:29;;;;;;;8.18;5.47;;;4.70;92.00;;;;;;5074764;28;20737;-72
2023/04/03 03:29:56;;;;;;;8.43;6.15;;;4.70;92.10;;;;;;5074385;28;20190;-72
2023/04/03 03:32:24;;;;;;;9.85;5.80;;;4.70;92.10;;;;;;5073579;28;20255;-72
2023/04/03 03:34:52;;;;;;;7.80;5.82;;;4.70;92.00;;;;;;5074254;28;20194;-73
2023/04/03 03:37:20;;;;;;;8.00;6.60;;;4.70;92.10;;;;;;5072753;28;20198;-72
2023/04/03 03:39:47;;;;;;;6.80;5.40;;;4.70;92.00;;;;;;5074637;28;20591;-72
2023/04/03 03:42:14;;;;;;;7.18;5.90;;;4.70;92.00;;;;;;5073588;28;20243;-73
2023/04/03 03:44:41;;;;;;;9.68;6.75;;;4.70;91.80;;;;;;5074541;28;20186;-72
2023/04/03 03:47:10;;;;;;;8.65;5.68;;;4.70;91.40;;;;;;5073300;28;20213;-73
2023/04/03 03:49:38;;;;;;;9.50;5.28;;;4.70;91.30;;;;;;5072962;28;20193;-72
2023/04/03 03:52:10;;;;;;;7.20;5.40;;;4.70;91.10;;;;;;5074186;28;20223;-72
2023/04/03 03:54:37;;;;;;;9.23;5.30;;;4.70;91.10;;;;;;5073593;28;20178;-72
2023/04/03 03:57:04;;;;;;;9.75;5.30;;;4.70;91.10;;;;;;5073965;28;20282;-75
2023/04/03 03:59:32;;;;;;;7.18;6.03;;;4.70;90.90;;;;;;5073429;28;20240;-72
2023/04/03 04:02:00;;;;;;;7.13;5.88;;;4.70;90.90;;;;;;5074288;28;20193;-72
2023/04/03 04:04:27;;;;;;;8.50;6.20;;;4.60;90.90;;;;;;5073383;28;20545;-73
2023/04/03 04:06:55;;;;;;;7.68;5.57;;;4.60;90.90;;;;;;5074275;28;20193;-72
2023/04/03 04:09:24;;;;;;;7.25;5.38;;;4.60;90.90;;;;;;5072821;28;20236;-72
2023/04/03 04:11:52;;;;;;;8.52;5.60;;;4.60;91.00;;;;;;5053968;28;20216;-72
2023/04/03 04:14:20;;;;;;;7.80;5.22;;;4.60;91.10;;;;;;5055802;28;20259;-75
2023/04/03 04:16:47;;;;;;;8.80;5.47;;;4.60;91.30;;;;;;5073992;28;20236;-72
2023/04/03 04:19:15;;;;;;;6.07;5.45;;;4.50;91.40;;;;;;5073686;28;20240;-72
2023/04/03 04:21:42;;;;;;;6.70;5.55;;;4.60;91.30;;;;;;5073575;28;20575;-72
2023/04/03 04:24:10;;;;;;;7.55;6.00;;;4.60;91.60;;;;;;5073942;28;20270;-72
2023/04/03 04:26:38;;;;;;;8.77;6.32;;;4.60;91.70;;;;;;5072169;28;20316;-72
2023/04/03 04:29:06;;;;;;;6.22;5.07;;;4.60;91.60;;;;;;5072705;28;20209;-72
2023/04/03 04:31:33;;;;;;;10.15;5.53;;;4.60;91.60;;;;;;5073481;28;20200;-72
2023/04/03 04:34:00;;;;;;;7.22;5.63;;;4.60;91.60;;;;;;5072727;28;20243;-72
2023/04/03 04:36:28;;;;;;;11.10;6.07;;;4.60;91.60;;;;;;5074012;28;20220;-72
2023/04/03 04:38:55;;;;;;;7.93;5.90;;;4.60;91.60;;;;;;5072665;28;20186;-72
2023/04/03 04:41:23;;;;;;;8.68;6.90;;;4.60;91.60;;;;;;5072422;28;20249;-71
2023/04/03 04:43:53;;;;;;;14.95;7.10;;;4.60;91.60;;;;;;5072683;28;20240;-72
2023/04/03 04:46:21;;;;;;;12.07;6.55;;;4.60;91.70;;;;;;5053734;28;20226;-71
2023/04/03 04:48:51;;;;;;;7.22;6.03;;;4.60;91.70;;;;;;5054576;28;20190;-71
2023/04/03 04:51:19;;;;;;;8.93;6.72;;;4.60;91.70;;;;;;5072044;28;20185;-72
2023/04/03 04:53:46;;;;;;;11.85;6.07;;;4.60;91.50;;;;;;5072045;28;20186;-72
2023/04/03 04:56:13;;;;;;;7.93;6.70;;;4.60;91.30;;;;;;5070948;28;20632;-72
2023/04/03 04:58:45;;;;;;;7.18;5.55;;;4.60;91.10;;;;;;5073338;28;20190;-72
2023/04/03 05:01:13;;;;;;;7.05;5.85;;;4.60;90.90;;;;;;5072182;28;20205;-72
2023/04/03 05:03:40;;;;;;;8.13;5.72;;;4.60;91.10;;;;;;5073412;28;20729;-71
2023/04/03 05:06:08;;;;;;;8.38;6.30;;;4.60;91.10;;;;;;5070119;28;20186;-73
2023/04/03 05:08:35;;;;;;;7.68;6.32;;;4.60;91.10;;;;;;5072499;28;20268;-72
2023/04/03 05:11:02;;;;;;;11.07;6.50;;;4.60;91.20;;;;;;5072293;28;20192;-72
2023/04/03 05:13:30;;;;;;;7.70;5.82;;;4.60;91.40;;;;;;5073241;28;20198;-72
2023/04/03 05:15:57;;;;;;;7.68;6.20;;;4.60;91.30;;;;;;5072062;28;20205;-71
2023/04/03 05:18:26;;;;;;;9.00;6.55;;;4.60;91.10;;;;;;5073087;28;20193;-72
2023/04/03 05:20:54;;;;;;;7.53;5.85;;;4.60;91.00;;;;;;5071606;28;20206;-71
2023/04/03 05:23:23;;;;;;;8.65;5.65;;;4.50;91.00;;;;;;5068976;28;20733;-72
2023/04/03 05:25:50;;;;;;;10.50;6.82;;;4.50;91.10;;;;;;5069715;28;20251;-72
2023/04/03 05:28:17;;;;;;;10.25;7.00;;;4.50;91.30;;;;;;5070170;28;20273;-72
2023/04/03 05:30:45;;;;;;;9.65;6.47;;;4.60;91.50;;;;;;5070109;28;20186;-72
2023/04/03 05:33:17;;;;;;;8.27;7.35;;;4.60;91.60;;;;;;5070343;28;20182;-72
2023/04/03 05:35:46;;;;;;;7.88;5.80;;;4.60;91.70;;;;;;5069069;28;20594;-72
2023/04/03 05:38:19;;;;;;;10.23;6.40;;;4.60;91.70;;;;;;5071074;28;20221;-72
2023/04/03 05:40:47;;;;;;;10.50;6.95;;;4.60;91.80;;;;;;5070523;28;20221;-72
2023/04/03 05:43:23;;;;;;;9.88;6.63;;;4.60;91.70;;;;;;5070269;28;20217;-73
2023/04/03 05:45:55;;;;;;;9.18;6.20;;;4.60;91.60;;;;;;5070552;28;20197;-72
2023/04/03 05:48:26;;;;;;;14.60;7.95;;;4.60;91.60;;;;;;5066392;28;20703;-72
2023/04/03 05:51:05;;;;;;;10.63;6.78;;;4.60;91.60;;;;;;5067220;28;20546;-72
2023/04/03 05:53:37;;;;;;;9.52;6.00;;;4.70;91.60;;;;;;5070558;28;20570;-72
2023/04/03 05:56:05;;;;;;;9.75;7.07;;;4.70;91.40;;;;;;5066954;28;20198;-72
2023/04/03 05:58:33;;;;;;;8.93;6.35;;;4.70;91.30;;;;;;5070990;28;20194;-71
2023/04/03 06:01:02;;;;;;;10.30;6.75;;;4.70;91.30;;;;;;5070003;28;20243;-73
2023/04/03 06:03:31;;;;;;;7.15;6.05;;;4.70;91.30;;;;;;5070800;28;20193;-72
2023/04/03 06:05:59;;;;;;;8.57;6.15;;;4.70;91.30;;;;;;5070859;28;20204;-71
2023/04/03 06:08:27;;;;;;;10.05;6.80;;;4.80;91.30;;;;;;5070347;28;20193;-72
2023/04/03 06:10:56;;;;;;;11.23;7.38;;;4.80;91.30;;;;;;5070066;28;20221;-72
2023/04/03 06:13:23;;;;;;;10.50;7.05;;;4.80;91.30;;;;;;5070605;28;20189;-71
2023/04/03 06:15:51;;;;;;;6.72;5.82;;;4.80;91.40;;;;;;5070695;28;20193;-72
2023/04/03 06:18:23;;;;;;;9.70;6.78;;;4.80;91.40;;;;;;5070348;28;20198;-73
2023/04/03 06:20:51;;;;;;;8.30;6.65;;;4.80;91.30;;;;;;5063480;28;20270;-72
2023/04/03 06:23:19;;;;;;;13.02;7.70;;;4.80;91.30;;;;;;5069289;28;20202;-72
2023/04/03 06:25:47;;;;;;;13.25;7.75;;;4.90;91.40;;;;;;5070360;28;20190;-73
2023/04/03 06:28:15;;;;;;;9.43;6.35;;;4.90;91.50;;;;;;5064922;28;20190;-72
2023/04/03 06:30:45;;;;;;;10.02;7.03;;;4.90;91.50;;;;;;5070072;28;20222;-72
2023/04/03 06:33:15;;;;;;;9.70;6.72;;;5.00;91.80;;;;;;5070079;28;20196;-72
2023/04/03 06:35:48;;;;;;;9.82;6.53;;;5.00;91.20;;;;;;5065662;28;20243;-72
2023/04/03 06:38:20;;;;;;;9.95;7.82;;;5.00;91.10;;;;;;5070048;28;20197;-72
2023/04/03 06:40:54;;;;;;;7.30;5.82;;;5.10;90.90;;;;;;5069886;28;20240;-73
2023/04/03 06:43:21;;;;;;;8.82;6.63;;;5.10;90.90;;;;;;5069731;28;21037;-72
2023/04/03 06:45:48;;;;;;;6.60;5.28;;;5.10;91.20;;;;;;5069821;28;20205;-72
2023/04/03 06:48:16;;;;;;;8.45;6.80;;;5.20;90.90;;;;;;5070183;28;20189;-72
2023/04/03 06:50:43;;;;;;;7.95;5.85;;;5.20;90.30;;;;;;5069849;28;20578;-73
2023/04/03 06:53:11;;;;;;;8.05;6.15;;;5.20;90.30;;;;;;5068283;28;20281;-73
2023/04/03 06:55:39;;;;;;;8.38;5.90;;;5.20;90.20;;;;;;5070812;28;20196;-72
2023/04/03 06:58:07;;;;;;;8.35;6.20;;;5.20;90.00;;;;;;5072110;28;20185;-72
2023/04/03 07:00:35;;;;;;;7.25;6.15;;;5.20;90.20;;;;;;5071549;28;20288;-72
2023/04/03 07:03:02;;;;;;;9.10;6.43;;;5.20;90.00;;;;;;5069606;28;20189;-72
2023/04/03 07:05:30;;;;;;;7.35;5.68;;;5.20;89.80;;;;;;5071759;28;20201;-72
2023/04/03 07:07:59;;;;;;;8.23;6.07;;;5.30;89.30;;;;;;5072069;28;20227;-72
2023/04/03 07:10:28;;;;;;;7.97;5.85;;;5.30;89.70;;;;;;5071870;28;20537;-72
2023/04/03 07:12:55;;;;;;;7.90;5.88;;;5.30;90.10;;;;;;5073342;28;20194;-72
2023/04/03 07:15:24;;;;;;;8.13;7.22;;;5.30;89.70;;;;;;5075508;28;20650;-72
2023/04/03 07:17:51;;;;;;;8.50;5.82;;;5.30;88.90;;;;;;5075674;28;20197;-72
2023/04/03 07:20:18;;;;;;;6.57;4.90;;;5.40;88.90;;;;;;5075571;28;20604;-72
2023/04/03 07:22:50;;;;;;;10.20;5.72;;;5.40;88.40;;;;;;5075232;28;20622;-72
2023/04/03 07:25:18;;;;;;;9.43;6.72;;;5.40;88.10;;;;;;5075226;28;20636;-72
2023/04/03 07:27:45;;;;;;;7.88;5.57;;;5.50;88.60;;;;;;5075213;28;20236;-72
2023/04/03 07:30:13;;;;;;;8.00;5.30;;;5.50;89.10;;;;;;5075419;28;20186;-72
2023/04/03 07:32:42;;;;;;;7.28;5.32;;;5.50;88.90;;;;;;5074978;28;20229;-72
2023/04/03 07:35:09;;;;;;;6.20;5.18;;;5.50;88.40;;;;;;5075164;28;20224;-72
2023/04/03 07:37:36;;;;;;;6.05;5.07;;;5.60;88.30;;;;;;5074938;28;20289;-72
2023/04/03 07:40:04;;;;;;;5.15;4.57;;;5.60;88.20;;;;;;5075366;28;20189;-73
2023/04/03 07:42:31;;;;;;;5.85;5.00;;;5.70;87.70;;;;;;5075286;28;20689;-73
2023/04/03 07:44:58;;;;;;;4.22;3.80;;;5.70;86.40;;;;;;5075132;28;20193;-72
2023/04/03 07:47:25;;;;;;;5.30;4.07;;;5.80;85.30;;;;;;5075144;28;20201;-72
2023/04/03 07:49:54;;;;;;;9.02;4.95;;;5.80;83.50;;;;;;5074656;28;20229;-72
2023/04/03 07:52:21;;;;;;;5.65;4.43;;;5.90;83.30;;;;;;5074847;28;20284;-72
2023/04/03 07:54:50;;;;;;;5.90;4.93;;;6.00;84.40;;;;;;5075147;28;20186;-72
2023/04/03 07:57:17;;;;;;;5.95;3.95;;;6.10;84.20;;;;;;5074949;28;20612;-72
2023/04/03 07:59:44;;;;;;;4.97;4.22;;;6.20;83.70;;;;;;5074923;28;20376;-72
2023/04/03 08:02:11;;;;;;;8.52;5.18;;;6.40;83.60;;;;;;5074467;28;20304;-73
2023/04/03 08:04:38;;;;;;;5.05;4.28;;;6.60;84.30;;;;;;5074593;28;20225;-72
2023/04/03 08:07:07;;;;;;;6.18;5.03;;;6.80;84.20;;;;;;5074309;28;20276;-73
2023/04/03 08:09:34;;;;;;;5.85;4.40;;;7.00;83.10;;;;;;5074161;28;20320;-73
2023/04/03 08:12:02;;;;;;;5.20;4.43;;;7.20;82.90;;;;;;5074713;28;20232;-72
2023/04/03 08:14:34;;;;;;;4.95;3.95;;;7.40;79.80;;;;;;5074459;28;20235;-72
2023/04/03 08:17:02;;;;;;;5.80;4.35;;;7.60;78.10;;;;;;5074395;28;20721;-72
2023/04/03 08:19:34;;;;;;;5.18;3.50;;;7.70;75.20;;;;;;5074702;28;20536;-72
2023/04/03 08:22:02;;;;;;;8.07;4.28;;;7.80;74.90;;;;;;5074338;28;20743;-72
2023/04/03 08:24:31;;;;;;;5.40;3.35;;;7.80;73.40;;;;;;5074376;28;20240;-72
2023/04/03 08:26:58;;;;;;;5.45;3.67;;;8.10;72.20;;;;;;5074242;28;20570;-73
2023/04/03 08:29:26;;;;;;;5.85;4.00;;;8.20;72.00;;;;;;5073815;28;20748;-72
2023/04/03 08:32:00;;;;;;;5.65;3.45;;;8.30;72.40;;;;;;5074298;28;20233;-72
2023/04/03 08:34:27;;;;;;;6.00;4.10;;;8.30;69.30;;;;;;5073882;28;20279;-72
2023/04/03 08:36:56;;;;;;;4.53;3.90;;;8.30;68.80;;;;;;5074431;28;20296;-72
2023/04/03 08:39:23;;;;;;;5.28;3.20;;;8.40;70.90;;;;;;5074167;28;20276;-72
2023/04/03 08:41:51;;;;;;;7.20;3.78;;;8.50;71.20;;;;;;5066808;28;20625;-75
2023/04/03 08:44:29;;;;;;;3.75;3.05;;;8.50;68.60;;;;;;5072633;28;20281;-72
2023/04/03 08:47:18;;;;;;;5.00;3.90;;;8.50;67.70;;;;;;5070574;28;20224;-73
2023/04/03 08:49:50;;;;;;;5.15;3.70;;;8.60;66.80;;;;;;5073143;28;20288;-73
2023/04/03 08:52:21;;;;;;;5.68;3.58;;;8.70;67.30;;;;;;5069111;28;20185;-72
2023/04/03 08:54:55;;;;;;;4.28;3.10;;;8.80;68.10;;;;;;5069966;28;20194;-73
2023/04/03 08:57:30;;;;;;;5.68;3.40;;;9.00;67.90;;;;;;5065600;28;20288;-74
2023/04/03 09:00:01;;;;;;;5.78;3.78;;;9.20;66.50;;;;;;5072193;28;20203;-73
2023/04/03 09:02:33;;;;;;;4.43;3.40;;;9.20;66.00;;;;;;5071651;28;20220;-72
2023/04/03 09:05:02;;;;;;;5.65;4.35;;;9.30;66.00;;;;;;5062439;28;20230;-72
2023/04/03 09:07:37;;;;;;;4.00;3.33;;;9.40;64.20;;;;;;5068370;28;20252;-72
2023/04/03 09:10:05;;;;;;;7.75;4.18;;;9.40;64.10;;;;;;5067939;28;20224;-73
2023/04/03 09:12:39;;;;;;;5.40;4.25;;;9.30;62.30;;;;;;5069354;28;20232;-72
2023/04/03 09:15:18;;;;;;;4.95;3.58;;;9.40;62.20;;;;;;5071920;28;20186;-74
2023/04/03 09:17:57;;;;;;;5.22;3.78;;;9.50;63.60;;;;;;5072794;28;20639;-72
2023/04/03 09:20:34;;;;;;;4.20;3.15;;;9.50;60.00;;;;;;5064816;28;20204;-73
2023/04/03 09:23:01;;;;;;;5.25;3.33;;;9.70;59.30;;;;;;5069291;28;20308;-73
2023/04/03 09:25:34;;;;;;;6.75;3.70;;;9.70;59.30;;;;;;5072797;28;20289;-72
2023/04/03 09:28:03;;;;;;;4.07;3.10;;;9.60;60.30;;;;;;5072056;28;20193;-73
2023/04/03 09:30:30;;;;;;;4.32;3.22;;;9.70;60.80;;;;;;5072235;28;20193;-73
2023/04/03 09:32:58;;;;;;;5.30;3.60;;;10.10;59.20;;;;;;5069737;28;20301;-72
2023/04/03 09:35:28;;;;;;;4.13;2.95;;;10.50;58.30;;;;;;5068026;28;20239;-72
2023/04/03 09:37:59;;;;;;;8.60;3.00;;;10.70;56.40;;;;;;5072522;28;20587;-73
2023/04/03 09:40:34;;;;;;;4.03;3.47;;;10.90;54.60;;;;;;5064415;28;20264;-73
2023/04/03 09:43:19;;;;;;;7.10;2.95;;;11.00;54.70;;;;;;5068114;28;20698;-73
2023/04/03 09:45:48;;;;;;;4.22;3.42;;;10.70;53.50;;;;;;5072504;28;20221;-73
2023/04/03 09:48:18;;;;;;;4.43;3.10;;;10.50;53.90;;;;;;5068135;28;20194;-73
2023/04/03 09:51:00;;;;;;;3.40;2.95;;;10.50;54.50;;;;;;5071960;28;20551;-73
2023/04/03 09:53:36;;;;;;;4.47;2.85;;;10.40;55.60;;;;;;5069579;28;20706;-72
2023/04/03 09:56:06;;;;;;;10.13;3.65;;;10.40;55.10;;;;;;5069041;28;20197;-73
2023/04/03 09:58:40;;;;;;;5.05;3.50;;;10.50;55.10;;;;;;5071995;28;20189;-73
2023/04/03 10:01:07;;;;;;;3.53;2.70;;;10.50;53.10;;;;;;5072343;28;20201;-73
2023/04/03 10:03:36;;;;;;;4.25;3.05;;;10.50;53.10;;;;;;5071563;28;20544;-73
2023/04/03 10:06:05;;;;;;;3.78;2.90;;;10.50;54.10;;;;;;5066370;28;20714;-73
2023/04/03 10:08:33;;;;;;;3.95;3.28;;;10.40;54.80;;;;;;5072463;28;20254;-73
2023/04/03 10:11:09;;;;;;;5.55;3.85;;;10.20;55.10;;;;;;5072410;28;20312;-73
2023/04/03 10:13:51;;;;;;;5.30;4.00;;;10.10;54.90;;;;;;5072870;28;20197;-73
2023/04/03 10:16:21;;;;;;;3.40;3.08;;;10.00;54.70;;;;;;5073037;28;20185;-73
2023/04/03 10:18:54;;;;;;;3.70;2.72;;;10.00;54.10;;;;;;5072897;28;20190;-73
2023/04/03 10:21:35;;;;;;;4.07;3.00;;;10.00;53.00;;;;;;5072800;28;20221;-73
2023/04/03 10:24:09;;;;;;;4.10;3.15;;;9.90;54.90;;;;;;5068327;28;20181;-73
2023/04/03 10:26:46;;;;;;;4.22;3.65;;;10.10;54.10;;;;;;5072509;28;20239;-73
2023/04/03 10:29:25;;;;;;;5.68;3.30;;;10.50;53.70;;;;;;5072358;28;20280;-73
2023/04/03 10:32:00;;;;;;;4.22;2.80;;;11.40;52.80;;;;;;5066328;28;20609;-73
2023/04/03 10:34:31;;;;;;;4.10;3.40;;;12.50;49.90;;;;;;5052247;28;20597;-73
2023/04/03 10:37:06;;;;;;;4.20;2.90;;;13.00;47.00;;;;;;5064948;28;20228;-73
2023/04/03 10:39:42;;;;;;;4.63;2.53;;;12.80;46.60;;;;;;5072492;28;20555;-73
2023/04/03 10:42:15;;;;;;;5.75;2.65;;;12.50;45.70;;;;;;5071132;28;20260;-75
2023/04/03 10:44:55;;;;;;;5.18;3.30;;;12.20;47.10;;;;;;5071654;28;20273;-73
2023/04/03 10:47:26;;;;;;;5.13;3.30;;;11.80;47.30;;;;;;5072396;28;20233;-74
2023/04/03 10:50:01;;;;;;;4.40;3.70;;;11.60;47.10;;;;;;5075878;28;20517;-73
2023/04/03 10:52:37;;;;;;;4.75;3.00;;;11.40;47.10;;;;;;5065054;28;20197;-73
2023/04/03 10:55:15;;;;;;;3.75;2.80;;;11.40;47.10;;;;;;5068181;28;20238;-73
2023/04/03 10:57:42;;;;;;;3.72;2.58;;;11.40;47.00;;;;;;5075483;28;20586;-73
2023/04/03 11:00:19;;;;;;;4.78;3.00;;;11.20;46.90;;;;;;5075657;28;20243;-73
2023/04/03 11:02:52;;;;;;;4.18;3.10;;;11.10;48.00;;;;;;5075662;28;20555;-73
2023/04/03 11:05:27;;;;;;;3.42;2.78;;;11.20;48.90;;;;;;5075368;28;20239;-73
2023/04/03 11:07:56;;;;;;;3.00;2.58;;;11.20;47.30;;;;;;5071987;28;20193;-72
2023/04/03 11:10:29;;;;;;;5.00;3.35;;;11.30;47.60;;;;;;5073985;28;20223;-73
2023/04/03 11:13:02;;;;;;;5.88;3.42;;;11.50;48.60;;;;;;5075052;28;20628;-73
2023/04/03 11:15:34;;;;;;;3.72;2.80;;;11.90;48.40;;;;;;5074825;28;20626;-73
2023/04/03 11:18:06;;;;;;;4.80;3.22;;;12.10;48.20;;;;;;5072926;28;20210;-74
2023/04/03 11:20:37;;;;;;;5.43;4.28;;;11.90;45.70;;;;;;5074837;28;20196;-73
2023/04/03 11:23:07;;;;;;;5.10;3.33;;;11.60;44.80;;;;;;5074602;28;20213;-73
2023/04/03 11:25:37;;;;;;;4.10;3.35;;;11.40;45.90;;;;;;5073715;28;21543;-73
2023/04/03 11:28:07;;;;;;;8.20;3.38;;;11.30;46.70;;;;;;5073923;28;20190;-73
2023/04/03 11:30:44;;;;;;;4.63;3.08;;;11.10;45.60;;;;;;5071405;28;20214;-74
2023/04/03 11:33:32;;;;;;;3.88;2.92;;;10.90;46.00;;;;;;5073544;28;20201;-73
2023/04/03 11:36:04;;;;;;;4.18;3.53;;;10.80;43.90;;;;;;5070590;28;20272;-73
2023/04/03 11:38:36;;;;;;;4.20;3.20;;;10.60;45.50;;;;;;5074488;28;20221;-73
2023/04/03 11:41:07;;;;;;;5.05;4.20;;;10.50;45.50;;;;;;5071824;28;20188;-73
2023/04/03 11:43:40;;;;;;;5.35;3.67;;;10.40;46.60;;;;;;5074333;28;20281;-73
2023/04/03 11:46:09;;;;;;;3.40;2.78;;;10.30;46.50;;;;;;5072274;28;20577;-73
2023/04/03 11:48:51;;;;;;;3.70;3.00;;;10.20;47.10;;;;;;5074085;28;20194;-73
2023/04/03 11:51:43;;;;;;;3.70;2.38;;;10.20;47.50;;;;;;5073231;28;20185;-73
2023/04/03 11:54:50;;;;;;;3.63;2.80;;;10.40;47.50;;;;;;5068890;28;20190;-73
2023/04/03 11:57:57;;;;;;;3.75;3.15;;;10.70;46.10;;;;;;5068348;28;20204;-73
2023/04/03 12:00:53;;;;;;;3.30;2.50;;;11.30;45.30;;;;;;5073193;28;20235;-72
2023/04/03 12:03:53;;;;;;;3.50;2.75;;;11.60;46.50;;;;;;5074583;28;20228;-73
2023/04/03 12:06:54;;;;;;;3.92;3.00;;;11.90;44.90;;;;;;5074862;28;20281;-73
2023/04/03 12:09:27;;;;;;;5.28;2.92;;;12.10;45.40;;;;;;5074348;28;20217;-73
2023/04/03 12:11:56;;;;;;;3.72;2.97;;;12.10;44.80;;;;;;5074718;28;20213;-73
2023/04/03 12:14:25;;;;;;;4.85;2.88;;;12.10;44.40;;;;;;5074751;28;20229;-73
2023/04/03 12:16:54;;;;;;;5.20;3.90;;;12.10;44.10;;;;;;5074752;28;20196;-73
2023/04/03 12:19:33;;;;;;;11.93;3.75;;;12.10;44.50;;;;;;5074312;28;20544;-73
2023/04/03 12:22:20;;;;;;;5.53;4.22;;;12.10;43.20;;;;;;5074552;28;20280;-73
2023/04/03 12:24:49;;;;;;;3.97;2.92;;;12.00;43.50;;;;;;5074652;28;20536;-73
2023/04/03 12:27:36;;;;;;;3.88;3.15;;;12.00;44.10;;;;;;5074090;28;20190;-73
2023/04/03 12:30:24;;;;;;;5.72;3.00;;;11.90;43.60;;;;;;5074511;28;20280;-72
2023/04/03 12:33:10;;;;;;;3.47;2.22;;;11.80;43.60;;;;;;5074329;28;20189;-73
2023/04/03 12:35:44;;;;;;;6.68;3.60;;;11.80;43.70;;;;;;5074443;28;20193;-72
2023/04/03 12:38:38;;;;;;;4.30;2.80;;;12.00;43.50;;;;;;5074064;28;20288;-73
2023/04/03 12:41:25;;;;;;;3.88;2.97;;;12.00;42.80;;;;;;5071465;28;20225;-73
2023/04/03 12:44:12;;;;;;;4.13;3.40;;;11.70;43.10;;;;;;5073716;28;20261;-72
2023/04/03 12:46:45;;;;;;;4.53;3.33;;;11.20;44.70;;;;;;5074135;28;20236;-73
2023/04/03 12:49:31;;;;;;;5.43;2.85;;;11.00;44.80;;;;;;5074181;28;20613;-73
2023/04/03 12:52:00;;;;;;;4.20;2.63;;;10.80;44.60;;;;;;5074070;28;20198;-72
2023/04/03 12:54:32;;;;;;;4.05;3.33;;;10.80;44.40;;;;;;5073850;28;20224;-73
2023/04/03 12:57:11;;;;;;;5.30;2.80;;;10.60;44.70;;;;;;5073882;28;20193;-73
2023/04/03 12:59:39;;;;;;;6.18;3.13;;;10.60;46.40;;;;;;5073709;28;20643;-73
2023/04/03 13:02:23;;;;;;;4.63;2.97;;;10.50;45.60;;;;;;5073551;28;20198;-73
2023/04/03 13:04:51;;;;;;;5.53;2.95;;;10.50;46.80;;;;;;5073673;28;20690;-72
2023/04/03 13:07:27;;;;;;;4.45;3.97;;;10.40;47.20;;;;;;5073618;28;20197;-73
2023/04/03 13:10:02;;;;;;;4.70;3.20;;;10.30;48.10;;;;;;5072767;28;20257;-72
2023/04/03 13:12:30;;;;;;;4.80;2.70;;;10.40;46.80;;;;;;5073580;28;20262;-73